createdAt,value
2017-10-31T00:02:14.141Z,66.93
2017-10-31T00:04:42.461Z,66.99
2017-10-31T00:07:10.792Z,66.91
2017-10-31T00:09:39.901Z,67.08
2017-10-31T00:12:08.242Z,67.16
2017-10-31T00:14:36.549Z,67.07
2017-10-31T00:17:05.746Z,66.88
2017-10-31T00:19:34.193Z,66.93
2017-10-31T00:22:02.676Z,66.95
2017-10-31T00:24:31.020Z,66.96
2017-10-31T00:27:00.972Z,66.96
2017-10-31T00:29:29.303Z,66.37
2017-10-31T00:31:57.634Z,66.54
2017-10-31T00:34:25.960Z,66.42
2017-10-31T00:36:55.054Z,66.19
2017-10-31T00:39:23.377Z,66.02
2017-10-31T00:41:51.714Z,66.16
2017-10-31T00:44:20.931Z,66.17
2017-10-31T00:46:49.264Z,66.61
2017-10-31T00:49:17.603Z,66.52
2017-10-31T00:51:45.923Z,66.28
2017-10-31T00:54:14.234Z,65.92
2017-10-31T00:56:42.565Z,65.89
2017-10-31T00:59:10.942Z,66.55
2017-10-31T01:01:39.301Z,66.34
2017-10-31T01:04:08.388Z,66.44
2017-10-31T01:06:37.485Z,66.50
2017-10-31T01:09:06.570Z,66.68
2017-10-31T01:11:34.886Z,66.89
2017-10-31T01:14:03.222Z,66.89
2017-10-31T01:16:31.567Z,67.08
2017-10-31T01:18:59.922Z,67.15
2017-10-31T01:21:29.020Z,67.19
2017-10-31T01:23:57.353Z,67.09
2017-10-31T01:26:25.699Z,67.09
2017-10-31T01:28:54.008Z,67.30
2017-10-31T01:31:22.328Z,67.55
2017-10-31T01:33:50.657Z,67.48
2017-10-31T01:36:18.973Z,67.34
2017-10-31T01:38:47.356Z,67.45
2017-10-31T01:41:15.698Z,67.82
2017-10-31T01:43:44.047Z,67.88
2017-10-31T01:46:13.156Z,67.73
2017-10-31T01:48:42.238Z,67.57
2017-10-31T01:51:11.345Z,67.66
2017-10-31T01:53:40.435Z,68.04
2017-10-31T01:56:08.762Z,68.37
2017-10-31T01:58:37.081Z,68.38
2017-10-31T02:01:05.412Z,68.40
2017-10-31T02:03:33.749Z,68.53
2017-10-31T02:06:02.112Z,68.63
2017-10-31T02:08:30.448Z,68.64
2017-10-31T02:10:58.766Z,68.81
2017-10-31T02:13:27.098Z,68.94
2017-10-31T02:15:56.177Z,68.96
2017-10-31T02:18:24.543Z,69.15
2017-10-31T02:20:52.891Z,68.91
2017-10-31T02:23:21.217Z,69.15
2017-10-31T02:25:49.888Z,69.15
2017-10-31T02:28:18.278Z,69.00
2017-10-31T02:30:46.599Z,69.34
2017-10-31T02:33:15.698Z,69.47
2017-10-31T02:35:44.039Z,69.25
2017-10-31T02:38:12.376Z,69.25
2017-10-31T02:40:40.692Z,69.26
2017-10-31T02:43:09.050Z,69.29
2017-10-31T02:45:37.372Z,69.59
2017-10-31T02:48:05.710Z,69.51
2017-10-31T02:50:34.039Z,69.56
2017-10-31T02:53:02.381Z,69.73
2017-10-31T02:55:30.702Z,69.80
2017-10-31T02:57:59.038Z,69.92
2017-10-31T03:00:27.418Z,69.99
2017-10-31T03:02:56.230Z,70.08
2017-10-31T03:05:24.592Z,70.22
2017-10-31T03:07:52.924Z,70.38
2017-10-31T03:10:21.250Z,70.29
2017-10-31T03:12:49.595Z,70.37
2017-10-31T03:15:17.931Z,70.41
2017-10-31T03:17:46.258Z,70.42
2017-10-31T03:20:14.593Z,70.50
2017-10-31T03:22:42.972Z,70.43
2017-10-31T03:25:11.298Z,70.59
2017-10-31T03:27:39.618Z,70.79
2017-10-31T03:30:07.968Z,70.83
2017-10-31T03:32:37.040Z,70.92
2017-10-31T03:35:05.367Z,71.06
2017-10-31T03:37:34.466Z,71.21
2017-10-31T03:40:03.495Z,71.23
2017-10-31T03:42:31.831Z,71.11
2017-10-31T03:45:00.897Z,71.13
2017-10-31T03:47:29.265Z,71.36
2017-10-31T03:49:57.611Z,71.54
2017-10-31T03:52:25.939Z,71.68
2017-10-31T03:54:54.426Z,71.58
2017-10-31T03:57:23.103Z,71.39
2017-10-31T03:59:51.450Z,71.39
2017-10-31T04:02:19.762Z,71.22
2017-10-31T04:04:48.073Z,71.00
2017-10-31T04:07:16.406Z,70.92
2017-10-31T04:09:44.795Z,70.82
2017-10-31T04:12:13.118Z,70.92
2017-10-31T04:14:41.467Z,70.85
2017-10-31T04:17:09.826Z,70.82
2017-10-31T04:19:38.137Z,70.76
2017-10-31T04:22:06.442Z,70.83
2017-10-31T04:24:34.770Z,70.92
2017-10-31T04:27:03.110Z,70.93
2017-10-31T04:29:31.422Z,70.93
2017-10-31T04:31:59.746Z,70.66
2017-10-31T04:34:28.056Z,70.75
2017-10-31T04:36:56.396Z,70.60
2017-10-31T04:39:24.709Z,70.43
2017-10-31T04:41:53.029Z,70.45
2017-10-31T04:44:21.360Z,70.65
2017-10-31T04:46:49.677Z,70.71
2017-10-31T04:49:18.753Z,70.69
2017-10-31T04:51:47.102Z,70.71
2017-10-31T04:54:15.430Z,70.44
2017-10-31T04:56:43.777Z,70.37
2017-10-31T04:59:12.144Z,70.29
2017-10-31T05:01:40.484Z,70.43
2017-10-31T05:04:09.582Z,70.49
2017-10-31T05:06:37.930Z,70.37
2017-10-31T05:09:06.278Z,70.19
2017-10-31T05:11:34.628Z,70.07
2017-10-31T05:14:03.745Z,70.10
2017-10-31T05:16:32.074Z,70.09
2017-10-31T05:19:00.383Z,70.36
2017-10-31T05:21:28.739Z,70.27
2017-10-31T05:23:57.051Z,70.25
2017-10-31T05:26:26.124Z,70.18
2017-10-31T05:28:54.442Z,70.02
2017-10-31T05:31:22.785Z,69.76
2017-10-31T05:33:51.114Z,69.62
2017-10-31T05:36:19.460Z,69.47
2017-10-31T05:38:47.783Z,69.41
2017-10-31T05:41:16.096Z,69.22
2017-10-31T05:43:44.394Z,69.29
2017-10-31T05:46:12.708Z,69.17
2017-10-31T05:48:41.803Z,69.16
2017-10-31T05:51:10.885Z,68.97
2017-10-31T05:53:39.335Z,69.23
2017-10-31T05:56:07.661Z,69.43
2017-10-31T05:58:36.931Z,69.49
2017-10-31T06:01:05.262Z,69.50
2017-10-31T06:03:33.602Z,69.67
2017-10-31T06:06:01.949Z,69.72
2017-10-31T06:08:30.318Z,70.06
2017-10-31T06:10:58.674Z,70.15
2017-10-31T06:13:27.024Z,70.23
2017-10-31T06:15:55.393Z,70.14
2017-10-31T06:18:23.716Z,70.16
2017-10-31T06:20:52.816Z,70.13
2017-10-31T06:23:27.428Z,70.46
2017-10-31T06:26:01.347Z,70.57
2017-10-31T06:31:35.836Z,70.30
2017-10-31T06:34:04.177Z,70.53
2017-10-31T06:36:32.504Z,70.48
2017-10-31T06:39:00.834Z,70.15
2017-10-31T06:41:29.166Z,70.25
2017-10-31T06:43:57.527Z,70.24
2017-10-31T06:46:25.876Z,70.31
2017-10-31T06:48:54.193Z,70.20
2017-10-31T06:51:22.562Z,70.07
2017-10-31T06:53:50.877Z,70.18
2017-10-31T06:56:19.974Z,69.98
2017-10-31T06:58:49.235Z,69.95
2017-10-31T07:01:17.555Z,69.77
2017-10-31T07:03:45.904Z,69.46
2017-10-31T07:06:14.267Z,69.65
2017-10-31T07:08:43.704Z,69.77
2017-10-31T07:11:12.023Z,69.45
2017-10-31T07:13:41.880Z,69.30
2017-10-31T07:16:10.203Z,69.34
2017-10-31T07:18:38.569Z,69.34
2017-10-31T07:21:06.888Z,69.36
2017-10-31T07:23:35.208Z,69.33
2017-10-31T07:26:03.545Z,69.27
2017-10-31T07:28:31.895Z,69.45
2017-10-31T07:31:00.231Z,69.39
2017-10-31T07:33:29.361Z,69.37
2017-10-31T07:35:57.686Z,69.31
2017-10-31T07:38:26.014Z,69.22
2017-10-31T07:40:54.339Z,69.22
2017-10-31T07:43:22.655Z,69.16
2017-10-31T07:45:51.769Z,68.82
2017-10-31T07:48:20.079Z,68.78
2017-10-31T07:50:48.393Z,68.58
2017-10-31T07:53:16.715Z,68.25
2017-10-31T07:55:45.083Z,68.15
2017-10-31T07:58:14.246Z,68.03
2017-10-31T08:00:44.091Z,68.10
2017-10-31T08:03:15.215Z,67.93
2017-10-31T08:05:43.540Z,67.92
2017-10-31T08:08:11.849Z,67.86
2017-10-31T08:10:40.173Z,67.78
2017-10-31T08:13:08.500Z,68.00
2017-10-31T08:15:36.825Z,68.07
2017-10-31T08:18:05.162Z,67.70
2017-10-31T08:20:33.475Z,67.73
2017-10-31T08:23:01.858Z,67.37
2017-10-31T08:25:30.210Z,67.54
2017-10-31T08:27:58.541Z,67.84
2017-10-31T08:30:26.871Z,67.80
2017-10-31T08:32:55.211Z,67.79
2017-10-31T08:35:23.535Z,67.52
2017-10-31T08:37:51.866Z,67.97
2017-10-31T08:40:20.196Z,68.00
2017-10-31T08:42:48.637Z,67.87
2017-10-31T08:45:17.757Z,67.61
2017-10-31T08:47:46.909Z,67.44
2017-10-31T08:50:15.259Z,67.16
2017-10-31T08:52:43.585Z,67.27
2017-10-31T08:55:12.719Z,67.31
2017-10-31T08:57:41.815Z,66.97
2017-10-31T09:00:10.950Z,66.70
2017-10-31T09:02:39.375Z,66.78
2017-10-31T09:05:08.506Z,67.13
2017-10-31T09:07:36.828Z,67.00
2017-10-31T09:10:05.157Z,67.11
2017-10-31T09:12:34.318Z,67.12
2017-10-31T09:15:02.685Z,67.05
2017-10-31T09:17:31.028Z,67.33
2017-10-31T09:20:00.121Z,67.39
2017-10-31T09:22:29.195Z,67.81
2017-10-31T09:24:58.230Z,67.81
2017-10-31T09:27:26.695Z,67.85
2017-10-31T09:29:55.104Z,67.79
2017-10-31T09:32:23.626Z,67.76
2017-10-31T09:34:51.983Z,67.48
2017-10-31T09:37:20.366Z,67.66
2017-10-31T09:39:48.714Z,67.56
2017-10-31T09:42:17.792Z,67.67
2017-10-31T09:44:46.145Z,67.29
2017-10-31T09:47:14.475Z,66.93
2017-10-31T09:49:43.578Z,66.84
2017-10-31T09:52:12.707Z,66.71
2017-10-31T09:54:41.020Z,66.60
2017-10-31T09:57:09.395Z,66.75
2017-10-31T09:59:37.717Z,66.88
2017-10-31T10:02:06.057Z,67.23
2017-10-31T10:04:34.384Z,68.44
2017-10-31T10:07:06.265Z,69.58
2017-10-31T10:09:34.616Z,70.48
2017-10-31T10:12:03.729Z,71.19
2017-10-31T10:14:32.825Z,71.74
2017-10-31T10:17:01.261Z,72.09
2017-10-31T10:19:29.588Z,72.33
2017-10-31T10:21:57.937Z,72.30
2017-10-31T10:24:26.297Z,71.91
2017-10-31T10:26:54.616Z,71.63
2017-10-31T10:29:22.977Z,71.75
2017-10-31T10:31:51.356Z,71.61
2017-10-31T10:34:19.698Z,71.47
2017-10-31T10:36:48.022Z,71.49
2017-10-31T10:39:16.332Z,71.48
2017-10-31T10:41:44.654Z,71.26
2017-10-31T10:44:12.997Z,70.87
2017-10-31T10:46:42.117Z,71.02
2017-10-31T10:49:11.212Z,70.87
2017-10-31T10:51:39.532Z,70.36
2017-10-31T10:54:07.866Z,70.23
2017-10-31T10:56:36.958Z,70.08
2017-10-31T10:59:06.079Z,69.12
2017-10-31T11:01:35.126Z,68.25
2017-10-31T11:04:03.474Z,67.79
2017-10-31T11:06:31.826Z,67.57
2017-10-31T11:09:00.932Z,67.36
2017-10-31T11:11:30.043Z,67.02
2017-10-31T11:16:26.086Z,66.98
2017-10-31T11:18:54.410Z,66.68
2017-10-31T11:21:22.772Z,66.55
2017-10-31T11:23:51.111Z,66.90
2017-10-31T11:26:20.818Z,66.82
2017-10-31T11:28:49.154Z,66.94
2017-10-31T11:31:17.495Z,66.91
2017-10-31T11:33:46.593Z,67.28
2017-10-31T11:36:14.956Z,67.74
2017-10-31T11:38:43.288Z,69.23
2017-10-31T11:41:11.620Z,71.00
2017-10-31T11:43:39.991Z,72.22
2017-10-31T11:46:08.348Z,72.99
2017-10-31T11:48:36.687Z,73.47
2017-10-31T11:51:05.018Z,73.51
2017-10-31T11:53:33.348Z,73.83
2017-10-31T11:56:02.449Z,74.06
2017-10-31T11:58:31.537Z,74.00
2017-10-31T12:01:00.648Z,73.91
2017-10-31T12:03:29.726Z,74.05
2017-10-31T12:05:58.820Z,74.37
2017-10-31T12:08:27.162Z,74.68
2017-10-31T12:10:55.547Z,75.14
2017-10-31T12:13:23.962Z,75.17
2017-10-31T12:15:52.300Z,75.42
2017-10-31T12:18:20.630Z,75.50
2017-10-31T12:20:49.500Z,75.68
2017-10-31T12:23:17.814Z,75.73
2017-10-31T12:25:46.127Z,76.00
2017-10-31T12:28:14.445Z,76.20
2017-10-31T12:30:42.782Z,76.44
2017-10-31T12:33:11.101Z,76.54
2017-10-31T12:35:39.423Z,76.95
2017-10-31T12:38:07.751Z,77.02
2017-10-31T12:40:36.095Z,77.10
2017-10-31T12:43:07.537Z,77.03
2017-10-31T12:45:36.120Z,77.01
2017-10-31T12:48:04.465Z,76.96
2017-10-31T12:50:32.799Z,76.87
2017-10-31T12:53:01.258Z,76.67
2017-10-31T12:55:31.029Z,76.60
2017-10-31T12:57:59.370Z,76.49
2017-10-31T13:00:27.718Z,76.58
2017-10-31T13:02:56.065Z,76.70
2017-10-31T13:05:24.413Z,76.47
2017-10-31T13:07:53.104Z,76.60
2017-10-31T13:10:22.447Z,76.72
2017-10-31T13:12:51.575Z,76.73
2017-10-31T13:15:19.894Z,76.40
2017-10-31T13:17:48.256Z,76.11
2017-10-31T13:20:16.593Z,76.26
2017-10-31T13:22:44.956Z,76.02
2017-10-31T13:25:13.334Z,75.93
2017-10-31T13:27:42.055Z,75.92
2017-10-31T13:30:12.109Z,75.75
2017-10-31T13:32:40.830Z,75.53
2017-10-31T13:35:11.298Z,75.27
2017-10-31T13:37:40.075Z,75.32
2017-10-31T13:40:09.690Z,75.28
2017-10-31T13:42:39.222Z,75.22
2017-10-31T13:45:07.600Z,74.83
2017-10-31T13:47:36.403Z,74.73
2017-10-31T13:50:05.149Z,74.77
2017-10-31T13:52:34.293Z,74.69
2017-10-31T13:55:02.673Z,74.73
2017-10-31T13:57:33.344Z,74.76
2017-10-31T14:00:01.716Z,74.88
2017-10-31T14:02:30.484Z,74.75
2017-10-31T14:05:00.865Z,74.76
2017-10-31T14:07:29.483Z,74.56
2017-10-31T14:09:58.205Z,74.58
2017-10-31T14:12:26.992Z,74.54
2017-10-31T14:14:56.915Z,74.60
2017-10-31T14:17:25.304Z,74.54
2017-10-31T14:19:53.788Z,74.70
2017-10-31T14:22:22.170Z,74.60
2017-10-31T14:24:51.287Z,74.67
2017-10-31T14:27:19.696Z,74.79
2017-10-31T14:29:48.102Z,74.85
2017-10-31T14:32:16.557Z,75.01
2017-10-31T14:34:44.927Z,75.29
2017-10-31T14:37:15.449Z,75.17
2017-10-31T14:39:44.189Z,75.24
2017-10-31T14:42:12.561Z,75.34
2017-10-31T14:44:40.953Z,75.44
2017-10-31T14:47:09.317Z,75.50
2017-10-31T14:49:37.709Z,75.66
2017-10-31T14:52:06.123Z,75.85
2017-10-31T14:54:34.613Z,75.92
2017-10-31T14:57:02.991Z,76.02
2017-10-31T14:59:31.387Z,76.76
2017-10-31T15:02:00.527Z,77.50
2017-10-31T15:04:28.987Z,77.66
2017-10-31T15:06:58.481Z,78.36
2017-10-31T15:09:28.417Z,78.56
2017-10-31T15:11:58.283Z,78.72
2017-10-31T15:14:29.152Z,79.05
2017-10-31T15:16:58.088Z,79.18
2017-10-31T15:19:28.269Z,79.36
2017-10-31T15:21:56.835Z,79.44
2017-10-31T15:24:25.454Z,79.41
2017-10-31T15:26:54.910Z,79.61
2017-10-31T15:29:23.510Z,79.66
2017-10-31T15:31:51.907Z,79.74
2017-10-31T15:34:20.840Z,79.84
2017-10-31T15:36:49.493Z,80.12
2017-10-31T15:39:19.011Z,80.81
2017-10-31T15:41:48.341Z,81.39
2017-10-31T15:44:16.773Z,81.84
2017-10-31T15:46:45.153Z,82.21
2017-10-31T15:49:13.537Z,82.54
2017-10-31T15:51:41.915Z,82.67
2017-10-31T15:54:10.299Z,82.74
2017-10-31T15:56:38.685Z,82.93
2017-10-31T15:59:07.075Z,83.12
2017-10-31T16:01:35.456Z,83.53
2017-10-31T16:04:03.810Z,83.95
2017-10-31T16:06:32.222Z,84.29
2017-10-31T16:09:00.852Z,84.74
2017-10-31T16:11:30.157Z,85.02
2017-10-31T16:13:58.565Z,85.00
2017-10-31T16:16:26.920Z,85.20
2017-10-31T16:18:55.273Z,85.33
2017-10-31T16:21:23.713Z,85.27
2017-10-31T16:23:52.164Z,85.41
2017-10-31T16:26:20.534Z,85.53
2017-10-31T16:28:48.922Z,85.60
2017-10-31T16:31:18.056Z,85.83
2017-10-31T16:33:46.418Z,86.06
2017-10-31T16:36:15.557Z,86.15
2017-10-31T16:38:43.934Z,86.37
2017-10-31T16:41:12.341Z,86.46
2017-10-31T16:43:40.734Z,86.67
2017-10-31T16:46:09.133Z,86.76
2017-10-31T16:48:37.648Z,86.84
2017-10-31T16:51:06.037Z,86.93
2017-10-31T16:53:34.431Z,87.07
2017-10-31T16:56:02.796Z,87.15
2017-10-31T16:58:31.187Z,87.27
2017-10-31T17:00:59.578Z,87.35
2017-10-31T17:03:27.987Z,87.49
2017-10-31T17:05:56.567Z,87.49
2017-10-31T17:08:27.142Z,87.57
2017-10-31T17:10:55.794Z,87.62
2017-10-31T17:13:24.419Z,87.73
2017-10-31T17:15:53.565Z,87.76
2017-10-31T17:18:21.936Z,87.88
2017-10-31T17:20:50.349Z,87.95
2017-10-31T17:23:18.726Z,88.05
2017-10-31T17:25:47.946Z,88.13
2017-10-31T17:28:16.311Z,88.27
2017-10-31T17:30:44.698Z,88.33
2017-10-31T17:33:13.066Z,88.51
2017-10-31T17:35:41.452Z,88.64
2017-10-31T17:38:09.842Z,88.80
2017-10-31T17:40:38.262Z,88.88
2017-10-31T17:43:06.629Z,88.89
2017-10-31T17:45:34.990Z,89.03
2017-10-31T17:48:03.446Z,89.03
2017-10-31T17:50:31.827Z,89.13
2017-10-31T17:53:00.196Z,89.27
2017-10-31T17:55:28.574Z,89.25
2017-10-31T17:57:56.995Z,89.28
2017-10-31T18:00:25.449Z,89.29
2017-10-31T18:02:53.839Z,89.27
2017-10-31T18:05:22.230Z,89.25
2017-10-31T18:07:50.627Z,89.26
2017-10-31T18:10:19.015Z,89.23
2017-10-31T18:12:47.395Z,89.26
2017-10-31T18:15:15.798Z,89.33
2017-10-31T18:17:44.289Z,89.36
2017-10-31T18:20:12.696Z,89.38
2017-10-31T18:22:41.860Z,89.41
2017-10-31T18:25:10.239Z,89.38
2017-10-31T18:27:38.637Z,89.38
2017-10-31T18:30:07.030Z,89.40
2017-10-31T18:32:36.445Z,89.37
2017-10-31T18:35:04.794Z,89.33
2017-10-31T18:37:33.176Z,89.27
2017-10-31T18:40:01.596Z,89.25
2017-10-31T18:42:30.852Z,89.15
2017-10-31T18:44:59.258Z,89.13
2017-10-31T18:47:27.707Z,89.10
2017-10-31T18:49:56.090Z,89.08
2017-10-31T18:52:24.470Z,89.05
2017-10-31T18:54:53.495Z,88.92
2017-10-31T18:57:21.927Z,89.03
2017-10-31T18:59:50.312Z,89.06
2017-10-31T19:02:18.693Z,89.05
2017-10-31T19:04:47.052Z,89.10
2017-10-31T19:07:15.473Z,88.96
2017-10-31T19:09:43.866Z,88.88
2017-10-31T19:12:12.248Z,88.86
2017-10-31T19:14:40.624Z,88.86
2017-10-31T19:17:08.985Z,88.89
2017-10-31T19:19:38.214Z,88.93
2017-10-31T19:22:06.595Z,88.90
2017-10-31T19:24:35.002Z,88.84
2017-10-31T19:27:03.425Z,89.04
2017-10-31T19:29:32.567Z,88.68
2017-10-31T19:32:01.006Z,88.48
2017-10-31T19:34:30.174Z,88.28
2017-10-31T19:36:59.340Z,88.16
2017-10-31T19:39:27.730Z,87.98
2017-10-31T19:41:56.150Z,87.85
2017-10-31T19:44:24.585Z,87.68
2017-10-31T19:46:53.097Z,87.61
2017-10-31T19:49:21.511Z,87.64
2017-10-31T19:51:49.898Z,87.75
2017-10-31T19:54:18.331Z,87.80
2017-10-31T19:56:46.749Z,87.93
2017-10-31T19:59:15.131Z,88.08
2017-10-31T20:01:43.539Z,88.10
2017-10-31T20:04:12.702Z,88.01
2017-10-31T20:06:41.114Z,88.01
2017-10-31T20:09:09.491Z,88.07
2017-10-31T20:11:37.943Z,88.04
2017-10-31T20:14:06.319Z,87.90
2017-10-31T20:16:34.712Z,87.90
2017-10-31T20:19:03.079Z,87.76
2017-10-31T20:21:31.476Z,87.58
2017-10-31T20:23:59.868Z,87.45
2017-10-31T20:29:02.782Z,87.36
2017-10-31T20:31:31.195Z,87.33
2017-10-31T20:34:00.331Z,87.33
2017-10-31T20:36:28.742Z,87.28
2017-10-31T20:38:57.154Z,87.28
2017-10-31T20:41:25.563Z,87.24
2017-10-31T20:43:54.696Z,87.25
2017-10-31T20:46:23.110Z,87.33
2017-10-31T20:48:51.492Z,87.34
2017-10-31T20:51:20.681Z,87.26
2017-10-31T20:53:49.182Z,87.13
2017-10-31T20:56:18.327Z,87.04
2017-10-31T20:58:46.820Z,86.99
2017-10-31T21:01:15.848Z,86.91
2017-10-31T21:03:44.233Z,86.77
2017-10-31T21:06:12.619Z,86.63
2017-10-31T21:08:41.016Z,86.50
2017-10-31T21:11:10.363Z,86.44
2017-10-31T21:13:38.753Z,86.37
2017-10-31T21:16:07.852Z,86.24
2017-10-31T21:18:36.224Z,86.25
2017-10-31T21:21:04.601Z,86.21
2017-10-31T21:23:32.977Z,86.22
2017-10-31T21:26:02.221Z,86.06
2017-10-31T21:28:30.628Z,85.91
2017-10-31T21:30:58.992Z,85.91
2017-10-31T21:33:27.367Z,85.95
2017-10-31T21:35:55.787Z,85.80
2017-10-31T21:38:24.178Z,85.70
2017-10-31T21:40:52.543Z,85.58
2017-10-31T21:43:21.707Z,85.63
2017-10-31T21:45:50.091Z,85.65
2017-10-31T21:48:18.487Z,85.55
2017-10-31T21:50:47.588Z,85.48
2017-10-31T21:53:15.955Z,85.45
2017-10-31T21:55:44.348Z,85.33
2017-10-31T21:58:12.734Z,85.34
2017-10-31T22:00:41.128Z,85.27
2017-10-31T22:03:09.525Z,85.25
2017-10-31T22:05:37.909Z,85.21
2017-10-31T22:08:07.090Z,85.23
2017-10-31T22:10:35.501Z,85.27
2017-10-31T22:13:04.639Z,85.18
2017-10-31T22:15:33.045Z,85.12
2017-10-31T22:18:02.237Z,85.15
2017-10-31T22:20:30.628Z,85.07
2017-10-31T22:22:58.994Z,85.00
2017-10-31T22:25:27.382Z,85.02
2017-10-31T22:27:55.739Z,85.08
2017-10-31T22:30:24.127Z,85.16
2017-10-31T22:32:53.281Z,85.15
2017-10-31T22:35:21.677Z,85.12
2017-10-31T22:37:50.056Z,84.98
2017-10-31T22:40:18.429Z,84.94
2017-10-31T22:42:46.838Z,84.95
2017-10-31T22:45:15.971Z,84.84
2017-10-31T22:47:44.335Z,84.73
2017-10-31T22:50:12.730Z,84.76
2017-10-31T22:52:41.166Z,84.63
2017-10-31T22:55:09.611Z,84.39
2017-10-31T22:57:37.993Z,84.37
2017-10-31T23:00:06.394Z,84.14
2017-10-31T23:02:34.757Z,84.10
2017-10-31T23:05:03.143Z,84.01
2017-10-31T23:07:31.528Z,83.79
2017-10-31T23:10:00.644Z,83.75
2017-10-31T23:12:29.032Z,83.54
2017-10-31T23:14:57.491Z,83.49
2017-10-31T23:17:25.900Z,83.42
2017-10-31T23:19:54.291Z,83.33
2017-10-31T23:22:22.681Z,83.26
2017-10-31T23:24:51.071Z,83.22
2017-10-31T23:27:20.648Z,83.01
2017-10-31T23:29:49.045Z,82.92
2017-10-31T23:32:17.456Z,82.74
2017-10-31T23:34:46.586Z,82.73
2017-10-31T23:37:14.969Z,82.67
2017-10-31T23:39:43.338Z,82.56
2017-10-31T23:42:11.727Z,82.59
2017-10-31T23:44:40.126Z,82.59
2017-10-31T23:47:08.501Z,82.60
2017-10-31T23:49:36.897Z,82.49
2017-10-31T23:52:05.286Z,82.46
2017-10-31T23:54:33.686Z,82.36
2017-10-31T23:57:02.048Z,82.36
2017-10-31T23:59:30.429Z,82.31
